Meny       Start   X °F

Select another period ( hide this area )

Units Period Custom range Directly to
Metric English Both
Daily Weekly Monthly Yearly
use both date-selectors for a custom range
previous Day
With this date
Daily Summary for Thursday 25 July 2024
Time Temp. ( °F ) Dew pt. ( °F ) Wind ( mph ) From Gust ( mph ) Pressure ( in ) Humid.( % ) Rainrate ( in )
High70.5 70.2 1.0 NNW ( 2/2 ) 1.0 30.16 99 0.07
Average69.4 69.1 0.0 Calm #80/82 0.0 30.10 99 0.10
Low68.7 68.4 -   0.0 30.11 99 -
Daily Tabular details for Thursday 25 July 2024
Time Temp. ( °F ) Dew pt. ( °F ) Wind ( mph ) From Gust ( mph ) Pressure ( in ) Humid.( % ) Rainrate ( in )
00:04 70.5 70.2   Calm   30.15 99 -
00:09 70.5 70.2   Calm   30.14 99 -
00:14 70.5 70.2   Calm   30.15 99 -
00:19 70.5 70.2   Calm   30.15 99 -
00:24 70.5 70.2   Calm   30.15 99 0.07
00:29 70.5 70.2   Calm   30.15 99 0.07
00:34 70.5 70.2   Calm   30.15 99 0.07
00:39 70.5 70.2   Calm   30.15 99 -
00:44 70.5 70.2   Calm   30.15 99 -
00:49 70.5 70.2   Calm   30.16 99 -
00:54 70.3 70.0   Calm   30.16 99 -
00:59 70.3 70.0   Calm   30.15 99 -
01:04 70.3 70.0   Calm   30.15 99 -
01:09 70.3 70.0   Calm   30.15 99 -
01:14 70.2 69.8   Calm   30.15 99 -
01:19 70.0 69.6   Calm   30.15 99 -
01:24 70.0 69.6   Calm   30.15 99 -
01:29 69.8 69.4   Calm   30.14 99 -
01:34 69.8 69.4   Calm   30.14 99 -
01:39 69.6 69.3   Calm   30.13 99 -
01:44 69.6 69.3   Calm   30.13 99 -
01:49 69.6 69.3   Calm   30.13 99 -
01:54 69.6 69.3   Calm   30.13 99 -
01:59 69.6 69.3   Calm   30.13 99 -
02:04 69.6 69.3   Calm   30.13 99 -
02:09 69.6 69.3   Calm   30.13 99 -
02:14 69.6 69.3   Calm   30.13 99 -
02:19 69.6 69.3   Calm   30.13 99 -
02:24 69.4 69.1   Calm   30.13 99 -
02:29 69.4 69.1   Calm   30.13 99 -
02:34 69.4 69.1   Calm   30.12 99 -
02:39 69.4 69.1   Calm   30.12 99 -
02:44 69.4 69.1   Calm   30.12 99 -
02:49 69.4 69.1   Calm   30.13 99 -
02:54 69.4 69.1   Calm   30.12 99 -
02:59 69.4 69.1   Calm   30.12 99 -
03:04 69.4 69.1   Calm   30.12 99 -
03:09 69.4 69.1   Calm   30.12 99 -
03:14 69.4 69.1   Calm   30.12 99 -
03:19 69.4 69.1   Calm   30.12 99 -
03:24 69.4 69.1 1.0 NNW 1.0 30.12 99 0.05
03:29 69.3 68.9 1.0 NNW 1.0 30.12 99 0.05
03:34 69.3 68.9   Calm   30.12 99 0.05
03:39 69.3 68.9   Calm   30.12 99 -
03:44 69.1 68.7   Calm   30.12 99 -
03:49 69.1 68.7   Calm   30.12 99 -
03:54 69.1 68.7   Calm   30.12 99 -
03:59 69.1 68.7   Calm   30.12 99 -
04:04 69.3 68.9   Calm   30.12 99 -
04:09 69.3 68.9   Calm   30.12 99 -
04:14 69.1 68.7   Calm   30.12 99 -
04:19 69.1 68.7   Calm   30.11 99 -
04:24 69.1 68.7   Calm   30.11 99 -
04:29 68.9 68.5   Calm   30.11 99 -
04:34 68.9 68.5   Calm   30.11 99 -
04:39 68.9 68.5   Calm   30.11 99 -
04:44 68.9 68.5   Calm   30.11 99 -
04:49 68.9 68.5   Calm   30.11 99 -
04:54 68.9 68.5   Calm   30.11 99 -
04:59 68.9 68.5   Calm   30.11 99 -
05:04 68.9 68.5   Calm   30.11 99 -
05:09 68.9 68.5   Calm   30.12 99 -
05:14 69.1 68.7   Calm   30.11 99 -
05:19 69.1 68.7   Calm   30.11 99 -
05:24 68.9 68.5   Calm   30.11 99 -
05:29 69.1 68.7   Calm   30.12 99 -
05:34 69.1 68.7   Calm   30.12 99 -
05:39 69.1 68.7   Calm   30.11 99 -
05:44 68.9 68.5   Calm   30.11 99 -
05:49 69.1 68.7   Calm   30.11 99 -
05:54 69.1 68.7   Calm   30.11 99 -
05:59 68.9 68.5   Calm   30.11 99 -
06:04 68.9 68.5   Calm   30.11 99 -
06:09 68.9 68.5   Calm   30.11 99 -
06:14 68.9 68.5   Calm   30.11 99 -
06:19 68.9 68.5   Calm   30.11 99 -
06:24 68.9 68.5   Calm   30.11 99 -
06:29 68.7 68.4   Calm   30.11 99 -
06:34 68.7 68.4   Calm   30.11 99 -
06:39 68.7 68.4   Calm   30.11 99 -
06:44 68.7 68.4   Calm   30.11 99 -
06:49 68.7 68.4   Calm   30.11 99 -

Download your copy of this data-set  from WeatherUnderground

Our weather-data as stored at Weather Underground

Original Weather Page

My Ham Radio Page